Terminal Aerodrome Forecast
Issued by NWS

Home | Current Version | Previous Version | Graphics & Text | Print | Product List | Glossary On
Versions: 1 2 3 4 5 6 7 8 9 10 11 12 13 14 15 16 17 18 19 20 21
235
FTUS43 KGRB 151934 AAA
TAFCWA
TAF AMD
KCWA 151934Z 1520/1618 11004KT P6SM SCT040
     FM160100 11003KT P6SM SCT200
     FM161200 11005KT P6SM BKN120=

USA.gov is the U.S. government's official web portal to all federal, state and local government web resources and services.